createdAt,value
2023-04-16T00:03:00.448Z,52
2023-04-16T00:15:00.243Z,52
2023-04-16T00:27:00.258Z,52
2023-04-16T00:39:00.158Z,52
2023-04-16T00:51:00.337Z,52
2023-04-16T01:03:00.401Z,52
2023-04-16T01:15:00.244Z,52
2023-04-16T01:27:00.434Z,52
2023-04-16T01:39:00.366Z,52
2023-04-16T01:51:00.287Z,52
2023-04-16T02:03:00.545Z,52
2023-04-16T02:15:00.412Z,52
2023-04-16T02:27:00.424Z,52
2023-04-16T02:39:00.336Z,52
2023-04-16T02:51:00.506Z,53.5
2023-04-16T03:03:00.462Z,59.5
2023-04-16T03:15:00.432Z,62.5
2023-04-16T03:27:00.484Z,60.5
2023-04-16T03:39:00.437Z,61
2023-04-16T03:51:00.353Z,58.5
2023-04-16T04:03:00.660Z,57.5
2023-04-16T04:15:00.480Z,57
2023-04-16T04:27:00.481Z,55.5
2023-04-16T04:39:00.383Z,54.5
2023-04-16T04:51:01.029Z,54.5
2023-04-16T05:03:00.668Z,54.5
2023-04-16T05:15:00.498Z,54.5
2023-04-16T05:27:00.648Z,54.5
2023-04-16T05:39:00.596Z,54.5
2023-04-16T05:51:00.547Z,54.5
2023-04-16T06:03:00.642Z,55
2023-04-16T06:15:00.661Z,59
2023-04-16T06:27:00.659Z,65
2023-04-16T06:39:00.566Z,63.5
2023-04-16T06:51:00.553Z,61
2023-04-16T07:03:00.764Z,57.5
2023-04-16T07:15:00.662Z,58
2023-04-16T07:27:00.648Z,60
2023-04-16T07:39:00.801Z,62
2023-04-16T07:51:00.703Z,61
2023-04-16T08:03:00.887Z,62.5
2023-04-16T08:15:00.641Z,63.5
2023-04-16T08:27:11.412Z,64
2023-04-16T08:39:00.761Z,63.5
2023-04-16T08:51:00.735Z,64
2023-04-16T09:03:00.757Z,63.5
2023-04-16T09:15:01.033Z,64
2023-04-16T09:27:00.856Z,64
2023-04-16T09:39:00.806Z,64.5
2023-04-16T09:51:00.721Z,62.5
2023-04-16T10:03:01.550Z,59.5
2023-04-16T10:15:00.861Z,62
2023-04-16T10:27:00.853Z,61.5
2023-04-16T10:39:00.967Z,57.5
2023-04-16T10:51:00.951Z,59
2023-04-16T11:03:01.012Z,51.5
2023-04-16T11:15:00.899Z,52.5
2023-04-16T11:27:00.996Z,51.5
2023-04-16T11:39:00.948Z,53.5
2023-04-16T11:51:00.889Z,51.5
2023-04-16T12:03:01.162Z,54
2023-04-16T12:15:01.053Z,56
2023-04-16T12:27:01.009Z,54.5
2023-04-16T12:39:00.936Z,53.5
2023-04-16T12:51:01.119Z,54
2023-04-16T13:03:01.245Z,53
2023-04-16T13:15:01.050Z,53.5
2023-04-16T13:27:01.023Z,53.5
2023-04-16T13:39:01.172Z,57
2023-04-16T13:51:01.100Z,58
2023-04-16T14:03:01.155Z,56
2023-04-16T14:15:01.007Z,54.5
2023-04-16T14:27:01.236Z,51
2023-04-16T14:39:01.131Z,53.5
2023-04-16T14:51:01.124Z,49
2023-04-16T15:03:01.116Z,55
2023-04-16T15:15:01.232Z,55
2023-04-16T15:27:01.170Z,54.5
2023-04-16T15:39:01.130Z,55
2023-04-16T15:51:01.266Z,56.5
2023-04-16T16:03:01.474Z,59.5
2023-04-16T16:15:01.175Z,63.5
2023-04-16T16:27:01.181Z,62.5
2023-04-16T16:39:01.287Z,63
2023-04-16T16:51:01.275Z,60.5
2023-04-16T17:03:01.418Z,63.5
2023-04-16T17:15:01.219Z,67
2023-04-16T17:27:01.378Z,70.5
2023-04-16T17:39:01.307Z,77.5
2023-04-16T17:51:01.272Z,79
2023-04-16T18:03:01.500Z,82
2023-04-16T18:15:01.412Z,86.5
2023-04-16T18:27:01.498Z,97
2023-04-16T18:39:15.235Z,100
2023-04-16T18:51:01.466Z,96.5
2023-04-16T19:03:01.461Z,101.5
2023-04-16T19:15:01.410Z,96.5
2023-04-16T19:27:01.405Z,92
2023-04-16T19:39:01.599Z,93.5
2023-04-16T19:51:01.439Z,97
2023-04-16T20:03:01.471Z,100.5
2023-04-16T20:15:01.350Z,101.5
2023-04-16T20:27:01.583Z,101.5
2023-04-16T20:39:01.475Z,99.5
2023-04-16T20:51:01.583Z,99
2023-04-16T21:03:01.480Z,104.5
2023-04-16T21:15:01.587Z,102.5
2023-04-16T21:27:01.554Z,101
2023-04-16T21:39:01.559Z,104.5
2023-04-16T21:51:01.499Z,104
2023-04-16T22:03:01.763Z,100
2023-04-16T22:15:02.999Z,99
2023-04-16T22:27:01.617Z,96.5
2023-04-16T22:39:01.514Z,100
2023-04-16T22:51:01.706Z,94.5
2023-04-16T23:03:01.855Z,90.5
2023-04-16T23:15:01.593Z,98
2023-04-16T23:27:01.757Z,94
2023-04-16T23:39:01.953Z,100
2023-04-16T23:51:01.618Z,100
